Sacramento, California
Traffic Map
Current Weather Conditions
Sacramento, California
Clear
Clear
36°
Feels Like: 36°
Wind Chill: 36° Ceiling: Unl
Heat Index: 36° Visibility: 10mi
Dew Point: Wind: 10mph
Humidity: 12% Direction: 210° (SSW)
Pressure: 29.74in Gusts: 0mph
Raw Report DataKSAC 302153Z AUTO 21009KT 10SM CLR 36/02 A2974 RMK AO2 SLP071 T03560022 TSNO
Traffic Incident Summary
Active as of:
Severity:
Category:
InformationThere was an issue retrieving the traffic information for this location. Please try a different location or try again shortly.
Advertisements
Track Severe Weather on mobile